Time;durP1;ratioP1;P1;durP2;ratioP2;P2;SDS_P1;SDS_P2;PMS_P1;PMS_P2;Temp;Humidity;BMP_temperature;BMP_pressure;BME280_temperature;BME280_humidity;BME280_pressure;Samples;Min_cycle;Max_cycle;Signal;HPM_P1;HPM_P2
2022/10/14 00:02:02;;;;;;;;;13.00;13.00;;;;;13.71;77.21;99843.09;5098969;28;8817;-60
2022/10/14 00:04:29;;;;;;;;;20.75;17.00;;;;;13.72;77.41;99847.47;5098604;28;8853;-59
2022/10/14 00:06:58;;;;;;;;;19.00;15.50;;;;;13.72;77.29;99839.44;5099384;28;8810;-60
2022/10/14 00:09:26;;;;;;;;;18.75;15.00;;;;;13.73;77.40;99832.25;5096067;28;8957;-62
2022/10/14 00:11:54;;;;;;;;;10.00;10.00;;;;;13.73;77.85;99843.78;5099685;28;8830;-60
2022/10/14 00:14:21;;;;;;;;;20.00;18.50;;;;;13.72;77.45;99835.91;5099579;28;9551;-60
2022/10/14 00:16:49;;;;;;;;;27.50;21.50;;;;;13.71;77.20;99839.56;5099155;28;8850;-61
2022/10/14 00:19:17;;;;;;;;;18.25;18.00;;;;;13.69;77.49;99833.53;5099250;28;8802;-60
2022/10/14 00:21:44;;;;;;;;;18.00;15.50;;;;;13.66;77.42;99831.97;5099278;28;8822;-60
2022/10/14 00:24:12;;;;;;;;;17.50;15.50;;;;;13.67;77.28;99835.50;5099026;28;8836;-61
2022/10/14 00:26:40;;;;;;;;;19.00;16.50;;;;;13.65;77.50;99826.75;5098942;28;8838;-60
2022/10/14 00:29:07;;;;;;;;;19.00;17.75;;;;;13.64;77.91;99822.41;5098108;28;8863;-61
2022/10/14 00:31:35;;;;;;;;;14.00;12.50;;;;;13.63;77.70;99818.03;5098537;28;8826;-58
2022/10/14 00:34:03;;;;;;;;;21.25;16.00;;;;;13.63;77.62;99834.09;5098667;28;8826;-60
2022/10/14 00:36:31;;;;;;;;;19.25;15.50;;;;;13.61;77.55;99822.69;5098818;28;8843;-62
2022/10/14 00:38:58;;;;;;;;;15.75;14.50;;;;;13.61;78.29;99820.03;5098200;28;8837;-61
2022/10/14 00:41:26;;;;;;;;;20.00;16.00;;;;;13.62;77.74;99822.56;5098374;28;8842;-62
2022/10/14 00:43:53;;;;;;;;;13.00;12.50;;;;;13.61;77.62;99825.38;5098371;28;8811;-59
2022/10/14 00:46:21;;;;;;;;;17.00;14.25;;;;;13.62;77.93;99821.72;5097921;28;8834;-61
2022/10/14 00:48:49;;;;;;;;;19.00;17.50;;;;;13.61;77.87;99818.22;5098193;28;8837;-62
2022/10/14 00:51:16;;;;;;;;;19.00;18.25;;;;;13.62;77.13;99816.34;5097615;28;8842;-60
2022/10/14 00:53:44;;;;;;;;;22.00;18.00;;;;;13.63;78.07;99823.41;5097708;28;8922;-62
2022/10/14 00:56:11;;;;;;;;;16.75;16.00;;;;;13.63;77.44;99818.03;5098364;28;8899;-61
2022/10/14 00:58:39;;;;;;;;;17.50;15.25;;;;;13.63;77.18;99823.41;5097566;28;8898;-60
2022/10/14 01:01:07;;;;;;;;;15.75;15.50;;;;;13.63;77.63;99823.41;5097714;28;8841;-61
2022/10/14 01:03:35;;;;;;;;;18.00;15.50;;;;;13.64;77.57;99822.41;5097828;28;8825;-61
2022/10/14 01:06:03;;;;;;;;;19.50;17.50;;;;;13.65;77.63;99816.06;5098266;28;8833;-59
2022/10/14 01:08:30;;;;;;;;;23.50;21.00;;;;;13.66;77.60;99818.59;5098224;28;8914;-61
2022/10/14 01:10:58;;;;;;;;;14.50;12.75;;;;;13.66;77.40;99815.91;5098059;28;8891;-61
2022/10/14 01:13:26;;;;;;;;;17.00;15.00;;;;;13.67;77.10;99814.09;5097799;28;8822;-61
2022/10/14 01:15:54;;;;;;;;;20.25;18.50;;;;;13.67;77.15;99806.91;5097936;28;8826;-62
2022/10/14 01:18:21;;;;;;;;;15.75;14.00;;;;;13.66;77.30;99804.38;5097630;28;8818;-61
2022/10/14 01:20:49;;;;;;;;;16.00;12.25;;;;;13.66;77.68;99812.41;5098549;28;8918;-62
2022/10/14 01:23:18;;;;;;;;;17.00;16.00;;;;;13.64;77.64;99809.88;5097443;28;8906;-61
2022/10/14 01:25:46;;;;;;;;;15.75;14.25;;;;;13.64;77.41;99804.53;5097974;28;8908;-62
2022/10/14 01:28:13;;;;;;;;;17.75;15.25;;;;;13.66;78.06;99807.06;5097601;28;8814;-61
2022/10/14 01:30:41;;;;;;;;;19.75;15.00;;;;;13.66;77.16;99810.56;5097716;28;8821;-61
2022/10/14 01:33:09;;;;;;;;;22.50;20.00;;;;;13.66;77.00;99796.38;5097531;28;8818;-60
2022/10/14 01:35:37;;;;;;;;;14.25;13.75;;;;;13.66;77.88;99807.06;5096909;28;8899;-62
2022/10/14 01:38:04;;;;;;;;;19.00;17.50;;;;;13.66;77.44;99807.06;5097041;28;8846;-61
2022/10/14 01:40:32;;;;;;;;;19.00;18.00;;;;;13.65;77.44;99800.84;5096932;28;8907;-60
2022/10/14 01:42:59;;;;;;;;;12.00;11.50;;;;;13.65;77.52;99805.34;5097122;28;9537;-62
2022/10/14 01:45:27;;;;;;;;;16.50;15.25;;;;;13.65;77.25;99789.28;5097181;28;8845;-60
2022/10/14 01:47:55;;;;;;;;;14.00;12.00;;;;;13.66;77.50;99796.38;5096779;28;8919;-60
2022/10/14 01:50:23;;;;;;;;;15.50;14.00;;;;;13.65;77.23;99790.16;5097146;28;8826;-62
2022/10/14 01:52:50;;;;;;;;;8.00;5.75;;;;;13.66;77.19;99786.47;5096805;28;8822;-61
2022/10/14 01:55:18;;;;;;;;;14.00;13.00;;;;;13.68;77.15;99791.69;5096675;28;8875;-62
2022/10/14 01:57:46;;;;;;;;;15.50;15.25;;;;;13.67;77.31;99785.50;5095437;28;8822;-62
2022/10/14 02:00:13;;;;;;;;;15.75;12.50;;;;;13.70;77.61;99792.38;5096202;28;8875;-61
2022/10/14 02:02:41;;;;;;;;;14.75;13.25;;;;;13.69;77.62;99790.72;5096408;28;8838;-61
2022/10/14 02:05:09;;;;;;;;;11.00;11.00;;;;;13.71;77.54;99788.72;5096393;28;8904;-60
2022/10/14 02:07:36;;;;;;;;;14.50;12.75;;;;;13.70;77.24;99782.53;5097135;28;8834;-62
2022/10/14 02:10:04;;;;;;;;;15.00;12.75;;;;;13.70;77.67;99777.19;5096773;28;9647;-60
2022/10/14 02:12:32;;;;;;;;;14.00;12.50;;;;;13.72;77.57;99777.03;5096739;28;8830;-61
2022/10/14 02:15:00;;;;;;;;;17.00;14.00;;;;;13.72;77.21;99775.19;5096599;28;8837;-62
2022/10/14 02:17:27;;;;;;;;;12.25;10.00;;;;;13.74;77.19;99772.41;5097220;28;8943;-62
2022/10/14 02:19:55;;;;;;;;;9.50;7.00;;;;;13.75;76.89;99774.06;5096896;28;8859;-60
2022/10/14 02:22:23;;;;;;;;;13.50;12.50;;;;;13.75;77.31;99769.53;5096947;28;8910;-60
2022/10/14 02:24:51;;;;;;;;;10.25;8.00;;;;;13.76;76.98;99770.41;5096557;28;8850;-62
2022/10/14 02:27:18;;;;;;;;;12.50;8.00;;;;;13.76;77.26;99768.59;5096455;28;8833;-62
2022/10/14 02:29:46;;;;;;;;;11.50;8.00;;;;;13.77;77.08;99762.25;5096249;28;8834;-60
2022/10/14 02:32:14;;;;;;;;;13.25;11.50;;;;;13.75;76.62;99760.69;5097168;28;9479;-62
2022/10/14 02:34:42;;;;;;;;;15.25;13.25;;;;;13.74;77.05;99759.84;5096785;28;9519;-60
2022/10/14 02:37:09;;;;;;;;;12.50;12.50;;;;;13.74;77.04;99759.00;5096465;28;8827;-61
2022/10/14 02:39:37;;;;;;;;;9.00;7.50;;;;;13.71;77.11;99751.25;5096353;28;8825;-60
2022/10/14 02:42:04;;;;;;;;;12.50;11.50;;;;;13.69;77.28;99747.88;5096597;28;8811;-61
2022/10/14 02:44:32;;;;;;;;;8.00;8.00;;;;;13.66;77.23;99746.34;5097175;28;9511;-62
2022/10/14 02:47:00;;;;;;;;;10.00;8.00;;;;;13.63;77.16;99737.75;5096678;28;8927;-62
2022/10/14 02:49:28;;;;;;;;;13.25;12.50;;;;;13.60;77.77;99738.91;5096080;28;8830;-60
2022/10/14 02:51:55;;;;;;;;;10.75;9.50;;;;;13.58;77.34;99745.41;5096182;28;8818;-61
2022/10/14 02:54:23;;;;;;;;;9.25;8.50;;;;;13.54;77.72;99750.19;5096345;28;8907;-62
2022/10/14 02:56:51;;;;;;;;;9.50;7.50;;;;;13.53;77.89;99737.78;5096278;28;9580;-62
2022/10/14 02:59:19;;;;;;;;;8.00;6.25;;;;;13.52;77.54;99732.59;5095552;28;8811;-61
2022/10/14 03:01:48;;;;;;;;;8.50;7.00;;;;;13.52;77.44;99735.28;5096256;28;9552;-61
2022/10/14 03:04:16;;;;;;;;;10.00;8.00;;;;;13.53;77.68;99739.63;5096015;28;8956;-62
2022/10/14 03:06:43;;;;;;;;;2.00;1.50;;;;;13.54;77.75;99738.66;5096479;28;8838;-62
2022/10/14 03:09:11;;;;;;;;;9.50;9.50;;;;;13.54;77.68;99734.16;5095395;28;8834;-61
2022/10/14 03:11:39;;;;;;;;;10.00;7.50;;;;;13.54;78.03;99728.81;5096091;28;8911;-60
2022/10/14 03:14:08;;;;;;;;;9.00;6.75;;;;;13.56;77.15;99736.66;5096256;28;8821;-61
2022/10/14 03:16:36;;;;;;;;;7.75;6.25;;;;;13.55;77.27;99727.81;5096355;28;8834;-61
2022/10/14 03:19:03;;;;;;;;;9.50;7.50;;;;;13.58;77.21;99718.66;5096549;28;8854;-60
2022/10/14 03:21:31;;;;;;;;;8.25;7.00;;;;;13.59;77.25;99720.34;5095750;28;8822;-60
2022/10/14 03:24:00;;;;;;;;;8.50;8.50;;;;;13.59;77.40;99712.31;5096034;28;8829;-61
2022/10/14 03:26:28;;;;;;;;;7.00;7.00;;;;;13.58;77.09;99715.97;5095991;28;8858;-61
2022/10/14 03:28:55;;;;;;;;;6.50;6.00;;;;;13.58;77.64;99714.13;5095234;28;8822;-60
2022/10/14 03:31:23;;;;;;;;;7.75;5.50;;;;;13.57;77.60;99706.22;5095127;28;8884;-60
2022/10/14 03:33:51;;;;;;;;;6.00;3.50;;;;;13.56;77.21;99705.41;5094348;28;8830;-62
2022/10/14 03:36:19;;;;;;;;;7.00;6.75;;;;;13.56;77.83;99704.56;5094097;28;8841;-62
2022/10/14 03:38:47;;;;;;;;;9.25;7.50;;;;;13.54;77.46;99709.22;5094909;28;8826;-62
2022/10/14 03:41:15;;;;;;;;;3.25;3.25;;;;;13.53;77.38;99703.00;5094597;28;8830;-59
2022/10/14 03:43:42;;;;;;;;;6.50;6.25;;;;;13.52;77.20;99700.50;5094776;28;8833;-61
2022/10/14 03:46:10;;;;;;;;;8.00;6.00;;;;;13.50;77.31;99706.00;5094610;28;8927;-61
2022/10/14 03:48:38;;;;;;;;;9.50;7.50;;;;;13.49;77.70;99708.81;5095467;28;8907;-61
2022/10/14 03:51:05;;;;;;;;;7.00;6.50;;;;;13.47;77.69;99706.28;5095281;28;8910;-59
2022/10/14 03:53:33;;;;;;;;;6.00;6.00;;;;;13.47;77.31;99697.41;5095023;28;8907;-60
2022/10/14 03:56:01;;;;;;;;;5.00;3.00;;;;;13.47;77.92;99697.41;5095435;28;8840;-62
2022/10/14 03:58:28;;;;;;;;;4.50;3.50;;;;;13.48;77.94;99701.78;5094896;28;8802;-59
2022/10/14 04:00:57;;;;;;;;;6.00;5.00;;;;;13.48;77.79;99696.41;5095004;28;9491;-59
2022/10/14 04:03:24;;;;;;;;;5.00;5.00;;;;;13.48;77.60;99691.06;5094716;28;8830;-59
2022/10/14 04:05:52;;;;;;;;;3.75;3.75;;;;;13.49;77.70;99695.44;5094924;28;8822;-59
2022/10/14 04:08:19;;;;;;;;;4.00;4.00;;;;;13.48;77.27;99688.38;5094975;28;8904;-59
2022/10/14 04:10:47;;;;;;;;;3.50;3.50;;;;;13.47;77.25;99681.34;5095091;28;8907;-61
2022/10/14 04:13:15;;;;;;;;;3.25;3.00;;;;;13.48;77.55;99688.38;5095336;28;8822;-60
2022/10/14 04:15:42;;;;;;;;;3.00;3.00;;;;;13.48;77.58;99689.25;5094758;28;8927;-60
2022/10/14 04:18:10;;;;;;;;;3.00;3.00;;;;;13.48;77.68;99689.25;5094998;28;8912;-59
2022/10/14 04:20:38;;;;;;;;;3.00;3.00;;;;;13.49;78.03;99684.72;5095742;28;8923;-59
2022/10/14 04:23:05;;;;;;;;;4.00;3.00;;;;;13.50;77.18;99684.59;5098997;28;9480;-60
2022/10/14 04:25:33;;;;;;;;;3.00;1.00;;;;;13.51;77.92;99696.97;5098919;28;8986;-59
2022/10/14 04:28:01;;;;;;;;;3.75;3.25;;;;;13.53;77.94;99686.13;5098026;28;8891;-59
2022/10/14 04:30:29;;;;;;;;;3.00;1.50;;;;;13.52;78.02;99684.44;5097545;28;8830;-59
2022/10/14 04:32:56;;;;;;;;;3.75;3.00;;;;;13.55;77.45;99686.81;5097646;28;8842;-61
2022/10/14 04:35:24;;;;;;;;;2.00;2.00;;;;;13.56;77.30;99688.50;5097019;28;8853;-62
2022/10/14 04:37:52;;;;;;;;;4.00;4.00;;;;;13.57;77.79;99684.84;5097561;28;8931;-59
2022/10/14 04:40:24;;;;;;;;;3.50;3.00;;;;;13.57;77.71;99685.69;5096827;28;8930;-60
2022/10/14 04:42:52;;;;;;;;;3.75;3.00;;;;;13.59;77.80;99682.88;5097567;28;8840;-59
2022/10/14 04:45:19;;;;;;;;;3.00;3.00;;;;;13.59;77.62;99672.16;5097313;28;8842;-59
2022/10/14 04:47:47;;;;;;;;;2.00;1.00;;;;;13.61;77.42;99680.88;5097682;28;8837;-60
2022/10/14 04:50:15;;;;;;;;;3.00;3.00;;;;;13.61;77.52;99673.72;5097401;28;8900;-59
2022/10/14 04:52:43;;;;;;;;;1.50;1.50;;;;;13.63;77.26;99674.41;5097599;28;8814;-60
2022/10/14 04:55:11;;;;;;;;;4.00;4.00;;;;;13.63;77.88;99666.38;5097057;28;8826;-60
2022/10/14 04:57:42;;;;;;;;;3.75;3.00;;;;;13.66;77.56;99670.59;5096765;28;8822;-62
2022/10/14 05:00:09;;;;;;;;;1.50;0.00;;;;;13.65;77.50;99667.06;5097344;28;8895;-60
2022/10/14 05:02:37;;;;;;;;;1.00;1.00;;;;;13.66;77.32;99665.25;5097242;28;8830;-61
2022/10/14 05:05:05;;;;;;;;;3.00;3.00;;;;;13.68;77.37;99668.59;5096993;28;8906;-61
2022/10/14 05:07:33;;;;;;;;;3.00;3.00;;;;;13.69;76.97;99672.97;5096603;28;8838;-62
2022/10/14 05:10:02;;;;;;;;;4.00;3.75;;;;;13.68;77.29;99673.97;5095812;28;8842;-61
2022/10/14 05:12:30;;;;;;;;;0.50;0.00;;;;;13.69;77.42;99676.50;5095276;28;8838;-60
2022/10/14 05:14:58;;;;;;;;;3.75;3.00;;;;;13.70;77.15;99678.19;5095735;28;8822;-60
2022/10/14 05:17:26;;;;;;;;;3.00;2.50;;;;;13.71;77.56;99681.69;5095735;28;8850;-62
2022/10/14 05:19:53;;;;;;;;;3.00;3.00;;;;;13.72;77.27;99686.03;5095395;28;8914;-59
2022/10/14 05:22:21;;;;;;;;;3.00;3.00;;;;;13.71;77.28;99674.50;5095426;28;9508;-59
2022/10/14 05:24:49;;;;;;;;;6.00;5.50;;;;;13.72;76.93;99672.66;5095750;28;9499;-62
2022/10/14 05:27:17;;;;;;;;;4.00;3.75;;;;;13.71;77.31;99665.63;5095691;28;8814;-61
2022/10/14 05:29:45;;;;;;;;;1.00;1.00;;;;;13.71;77.53;99671.81;5095656;28;8822;-60
2022/10/14 05:32:13;;;;;;;;;5.00;4.00;;;;;13.70;77.42;99663.94;5094637;28;8860;-60
2022/10/14 05:34:40;;;;;;;;;6.00;5.50;;;;;13.70;77.67;99666.63;5096385;28;8818;-61
2022/10/14 05:37:08;;;;;;;;;6.00;5.50;;;;;13.70;77.33;99669.28;5096031;28;8818;-62
2022/10/14 05:39:36;;;;;;;;;6.50;6.00;;;;;13.70;77.31;99671.97;5095578;28;8818;-59
2022/10/14 05:42:04;;;;;;;;;6.00;6.00;;;;;13.69;76.97;99665.78;5095679;28;8838;-61
2022/10/14 05:44:31;;;;;;;;;6.25;6.00;;;;;13.71;76.96;99670.97;5096158;28;8898;-62
2022/10/14 05:46:59;;;;;;;;;6.00;6.00;;;;;13.70;77.21;99663.94;5096213;28;8842;-61
2022/10/14 05:49:27;;;;;;;;;3.50;2.50;;;;;13.70;77.39;99663.94;5095642;28;8806;-59
2022/10/14 05:51:55;;;;;;;;;3.00;3.00;;;;;13.69;76.99;99663.13;5095962;28;8834;-62
2022/10/14 05:54:22;;;;;;;;;7.50;6.00;;;;;13.70;77.23;99659.44;5095206;28;8838;-62
2022/10/14 05:56:50;;;;;;;;;5.50;5.50;;;;;13.70;76.94;99658.59;5096043;28;8845;-59
2022/10/14 05:59:18;;;;;;;;;6.00;6.00;;;;;13.70;77.17;99662.13;5094982;28;8814;-62
2022/10/14 06:01:45;;;;;;;;;10.25;10.00;;;;;13.70;77.09;99664.78;5095772;28;8822;-60
2022/10/14 06:04:13;;;;;;;;;6.00;6.00;;;;;13.69;77.29;99655.09;5095507;28;8849;-61
2022/10/14 06:06:43;;;;;;;;;9.25;8.50;;;;;13.70;77.14;99658.59;5094792;28;8854;-60
2022/10/14 06:09:10;;;;;;;;;9.50;9.25;;;;;13.69;77.63;99641.72;5095974;28;9627;-62
2022/10/14 06:11:38;;;;;;;;;9.75;7.50;;;;;13.70;77.30;99653.22;5095518;28;8830;-62
2022/10/14 06:14:06;;;;;;;;;9.75;9.00;;;;;13.70;77.39;99648.75;5095622;28;8814;-62
2022/10/14 06:16:34;;;;;;;;;7.50;7.50;;;;;13.71;77.11;99649.56;5095271;28;8846;-62
2022/10/14 06:19:02;;;;;;;;;8.00;8.00;;;;;13.68;77.39;99644.53;5094735;28;8833;-61
2022/10/14 06:21:29;;;;;;;;;7.00;6.00;;;;;13.70;77.59;99650.56;5093531;28;8838;-60
2022/10/14 06:23:57;;;;;;;;;7.75;7.75;;;;;13.69;77.71;99636.34;5093176;28;9543;-59
2022/10/14 06:26:25;;;;;;;;;7.00;6.75;;;;;13.72;77.47;99645.88;5092445;28;8834;-61
2022/10/14 06:28:53;;;;;;;;;11.50;8.00;;;;;13.73;77.05;99643.06;5092692;28;8811;-62
2022/10/14 06:31:21;;;;;;;;;6.25;6.00;;;;;13.76;76.81;99634.75;5092866;28;8829;-60
2022/10/14 06:33:49;;;;;;;;;10.00;9.00;;;;;13.79;77.31;99633.59;5093138;28;8883;-62
2022/10/14 06:36:17;;;;;;;;;4.25;4.25;;;;;13.82;77.47;99623.44;5092975;28;9600;-61
2022/10/14 06:38:44;;;;;;;;;7.00;7.00;;;;;13.86;76.69;99629.31;5093522;28;8826;-61
2022/10/14 06:41:12;;;;;;;;;6.25;6.25;;;;;13.89;76.61;99627.19;5094273;28;8830;-62
2022/10/14 06:43:40;;;;;;;;;6.00;4.50;;;;;13.92;77.25;99626.06;5093759;28;8976;-59
2022/10/14 06:46:08;;;;;;;;;6.00;6.00;;;;;13.96;77.20;99625.59;5093524;28;8842;-61
2022/10/14 06:48:36;;;;;;;;;12.00;10.00;;;;;14.01;76.50;99614.44;5093986;28;8908;-61
2022/10/14 06:51:04;;;;;;;;;7.50;6.50;;;;;14.06;76.08;99613.00;5093846;28;8842;-60
2022/10/14 06:53:32;;;;;;;;;5.00;3.00;;;;;14.12;76.39;99617.72;5093819;28;8850;-62
2022/10/14 06:56:00;;;;;;;;;6.00;4.00;;;;;14.20;76.20;99625.06;5093577;28;8837;-60
2022/10/14 06:58:28;;;;;;;;;6.25;6.25;;;;;14.27;76.20;99613.56;5093579;28;8838;-60
2022/10/14 07:00:56;;;;;;;;;5.00;3.25;;;;;14.36;75.60;99611.81;5094026;28;8842;-61
2022/10/14 07:03:24;;;;;;;;;6.25;6.00;;;;;14.44;75.72;99603.84;5093205;28;9436;-60
2022/10/14 07:05:52;;;;;;;;;6.25;5.00;;;;;14.50;75.41;99605.91;5093012;28;8838;-61
2022/10/14 07:08:20;;;;;;;;;4.25;3.25;;;;;14.53;75.55;99609.13;5093419;28;8845;-62
2022/10/14 07:10:48;;;;;;;;;2.00;2.00;;;;;14.57;75.94;99606.97;5094726;28;8841;-62
2022/10/14 07:13:16;;;;;;;;;6.00;6.00;;;;;14.58;75.77;99609.47;5093684;28;8845;-60
2022/10/14 07:15:44;;;;;;;;;2.50;1.00;;;;;14.61;75.47;99611.00;5093894;28;8845;-60
2022/10/14 07:18:12;;;;;;;;;3.75;3.00;;;;;14.62;75.74;99615.38;5094090;28;8849;-61
2022/10/14 07:20:40;;;;;;;;;3.50;3.50;;;;;14.62;76.47;99610.00;5093997;28;8850;-60
2022/10/14 07:23:08;;;;;;;;;3.00;3.00;;;;;14.61;75.80;99606.50;5094167;28;9520;-62
2022/10/14 07:25:36;;;;;;;;;3.00;3.00;;;;;14.61;76.77;99609.19;5093700;28;8818;-62
2022/10/14 07:28:04;;;;;;;;;3.00;3.00;;;;;14.60;76.63;99603.97;5093021;28;8841;-59
2022/10/14 07:30:32;;;;;;;;;2.50;2.50;;;;;14.59;76.47;99607.66;5093567;28;8834;-62
2022/10/14 07:33:00;;;;;;;;;3.50;3.25;;;;;14.60;76.26;99602.16;5093335;28;9021;-62
2022/10/14 07:35:28;;;;;;;;;3.00;3.00;;;;;14.61;76.66;99606.50;5093542;28;8850;-61
2022/10/14 07:37:56;;;;;;;;;3.00;3.00;;;;;14.62;76.57;99610.00;5093541;28;9733;-61
2022/10/14 07:40:24;;;;;;;;;6.00;6.00;;;;;14.64;76.74;99608.88;5094124;28;9752;-59
2022/10/14 07:42:52;;;;;;;;;3.00;2.00;;;;;14.70;76.50;99608.25;5093236;28;8841;-59
2022/10/14 07:45:20;;;;;;;;;3.00;3.00;;;;;14.83;76.53;99610.50;5092851;28;8853;-59
2022/10/14 07:47:47;;;;;;;;;3.00;2.50;;;;;14.90;75.97;99608.88;5093243;28;8845;-60
2022/10/14 07:50:15;;;;;;;;;3.25;3.00;;;;;14.98;76.08;99608.94;5093409;28;8822;-62
2022/10/14 07:52:43;;;;;;;;;4.50;3.75;;;;;15.03;76.08;99598.59;5092702;28;8983;-61
2022/10/14 07:55:11;;;;;;;;;4.00;3.50;;;;;15.07;75.78;99599.94;5091747;28;8849;-59
2022/10/14 07:57:41;;;;;;;;;1.00;1.00;;;;;15.11;75.98;99593.28;5096701;28;8829;-62
2022/10/14 08:00:09;;;;;;;;;2.00;2.00;;;;;15.16;75.80;99586.41;5096779;28;8849;-59
2022/10/14 08:02:36;;;;;;;;;3.40;3.40;;;;;15.21;76.07;99588.63;5096458;28;8830;-61
2022/10/14 08:05:04;;;;;;;;;3.25;3.00;;;;;15.25;76.12;99588.13;5096596;28;9624;-62
2022/10/14 08:07:53;;;;;;;;;4.40;4.40;;;;;15.27;75.52;99596.03;5096465;28;8857;-61
2022/10/14 08:10:21;;;;;;;;;2.20;1.00;;;;;15.30;75.58;99601.06;5097218;28;8822;-60
2022/10/14 08:12:50;;;;;;;;;3.50;3.00;;;;;15.32;75.97;99594.56;5097885;28;8852;-60
2022/10/14 08:15:17;;;;;;;;;3.00;3.00;;;;;15.35;75.47;99591.59;5097215;28;8834;-61
2022/10/14 08:17:46;;;;;;;;;1.40;1.00;;;;;15.40;75.91;99591.94;5097114;28;8970;-62
2022/10/14 08:20:14;;;;;;;;;1.00;1.00;;;;;15.43;75.55;99597.00;5096379;28;8830;-60
2022/10/14 08:22:42;;;;;;;;;2.80;2.60;;;;;15.44;75.47;99595.13;5096443;28;8970;-60
2022/10/14 08:25:09;;;;;;;;;4.00;3.20;;;;;15.45;75.73;99594.13;5096902;28;9768;-60
2022/10/14 08:27:37;;;;;;;;;3.60;3.60;;;;;15.47;75.55;99586.78;5096766;28;8974;-60
2022/10/14 08:30:05;;;;;;;;;3.60;3.00;;;;;15.49;74.96;99574.03;5095521;28;8842;-59
2022/10/14 08:32:37;;;;;;;;;1.80;1.00;;;;;15.54;75.16;99579.75;5091249;28;8903;-62
2022/10/14 08:35:05;;;;;;;;;4.00;3.25;;;;;15.58;76.10;99581.97;5095266;28;9777;-60
2022/10/14 08:37:33;;;;;;;;;0.00;0.00;;;;;15.63;75.66;99582.28;5094825;28;8914;-60
2022/10/14 08:40:01;;;;;;;;;3.40;2.60;;;;;15.67;75.34;99570.25;5095387;28;8903;-60
2022/10/14 08:42:30;;;;;;;;;3.00;3.00;;;;;15.74;75.39;99570.41;5096288;28;9613;-59
2022/10/14 08:44:58;;;;;;;;;3.20;3.00;;;;;15.77;75.13;99572.78;5095844;28;8918;-61
2022/10/14 08:47:26;;;;;;;;;1.40;0.40;;;;;15.77;74.63;99560.19;5095830;28;8935;-60
2022/10/14 08:49:54;;;;;;;;;2.60;2.20;;;;;15.82;74.88;99557.00;5095376;28;8834;-59
2022/10/14 08:52:22;;;;;;;;;3.00;3.00;;;;;15.88;75.37;99564.41;5096800;28;8837;-60
2022/10/14 08:54:54;;;;;;;;;1.00;1.00;;;;;15.92;75.02;99573.84;5096255;28;9267;-61
2022/10/14 08:57:22;;;;;;;;;2.20;1.40;;;;;15.93;75.01;99565.59;5096896;28;8838;-60
2022/10/14 08:59:50;;;;;;;;;1.00;1.00;;;;;15.97;75.08;99561.59;5096465;28;8964;-61
2022/10/14 09:02:18;;;;;;;;;0.00;0.00;;;;;15.99;74.74;99556.06;5095379;28;8980;-59
2022/10/14 09:04:47;;;;;;;;;0.60;0.60;;;;;16.03;74.71;99555.56;5095680;28;8863;-59
2022/10/14 09:07:15;;;;;;;;;0.00;0.00;;;;;16.08;74.88;99555.88;5095829;28;8853;-61
2022/10/14 09:09:43;;;;;;;;;1.00;0.00;;;;;16.11;74.55;99560.09;5094999;28;8884;-60
2022/10/14 09:12:11;;;;;;;;;0.00;0.00;;;;;16.11;74.65;99555.56;5095706;28;8856;-61
2022/10/14 09:14:39;;;;;;;;;1.00;1.00;;;;;16.12;75.05;99543.81;5095656;28;8914;-60
2022/10/14 09:17:07;;;;;;;;;0.00;0.00;;;;;16.13;75.42;99552.69;5095777;28;8858;-62
2022/10/14 09:19:35;;;;;;;;;0.00;0.00;;;;;16.14;75.19;99554.41;5096018;28;8813;-62
2022/10/14 09:22:04;;;;;;;;;1.00;0.80;;;;;16.12;75.10;99546.50;5096650;28;8822;-60
2022/10/14 09:24:34;;;;;;;;;0.60;0.60;;;;;16.10;75.38;99535.09;5095734;28;8842;-60
2022/10/14 09:27:02;;;;;;;;;1.00;1.00;;;;;16.14;75.20;99532.91;5096405;28;8848;-60
2022/10/14 09:29:30;;;;;;;;;0.40;0.00;;;;;16.16;74.71;99525.50;5096133;28;8834;-60
2022/10/14 09:31:58;;;;;;;;;0.00;0.00;;;;;16.21;75.06;99526.69;5095809;28;8822;-60
2022/10/14 09:34:26;;;;;;;;;0.00;0.00;;;;;16.25;74.70;99519.97;5096058;28;8834;-61
2022/10/14 09:36:54;;;;;;;;;0.20;0.00;;;;;16.32;74.42;99518.31;5095408;28;8852;-60
2022/10/14 09:39:22;;;;;;;;;0.00;0.00;;;;;16.35;74.90;99513.41;5095036;28;8911;-59
2022/10/14 09:41:50;;;;;;;;;0.00;0.00;;;;;16.43;74.12;99512.59;5095853;28;8822;-59
2022/10/14 09:44:20;;;;;;;;;0.00;0.00;;;;;16.46;74.54;99506.88;5095866;28;8903;-60
2022/10/14 09:46:48;;;;;;;;;0.00;0.00;;;;;16.51;74.77;99509.91;5095774;28;8868;-62
2022/10/14 09:49:16;;;;;;;;;0.00;0.00;;;;;16.57;74.23;99507.34;5095498;28;8868;-60
2022/10/14 09:51:44;;;;;;;;;0.20;0.20;;;;;16.61;74.17;99500.66;5095768;28;8968;-59
2022/10/14 09:54:12;;;;;;;;;0.00;0.00;;;;;16.68;73.97;99501.63;5095364;28;8880;-60
2022/10/14 09:56:41;;;;;;;;;0.00;0.00;;;;;16.69;74.01;99505.16;5094418;28;8826;-59
2022/10/14 09:59:09;;;;;;;;;0.00;0.00;;;;;16.75;73.83;99496.41;5094108;28;8856;-62
2022/10/14 10:01:38;;;;;;;;;0.00;0.00;;;;;16.83;73.77;99496.38;5094508;28;8923;-60
2022/10/14 10:04:06;;;;;;;;;0.00;0.00;;;;;17.00;73.48;99492.66;5094746;28;8829;-61
2022/10/14 10:06:34;;;;;;;;;0.00;0.00;;;;;17.43;72.38;99501.06;5095225;28;8858;-59
2022/10/14 10:09:02;;;;;;;;;0.40;0.00;;;;;17.69;72.16;99498.88;5094650;28;8853;-60
2022/10/14 10:11:32;;;;;;;;;0.00;0.00;;;;;17.76;71.88;99490.94;5094929;28;8965;-60
2022/10/14 10:14:00;;;;;;;;;0.00;0.00;;;;;17.90;71.67;99485.63;5094295;28;8957;-61
2022/10/14 10:16:30;;;;;;;;;0.00;0.00;;;;;18.09;70.98;99495.06;5094891;28;9484;-62
2022/10/14 10:19:00;;;;;;;;;0.00;0.00;;;;;18.10;70.62;99478.72;5092967;28;8883;-61
2022/10/14 10:21:28;;;;;;;;;0.00;0.00;;;;;18.13;71.35;99475.66;5093931;28;8834;-60
2022/10/14 10:23:57;;;;;;;;;0.00;0.00;;;;;18.11;71.32;99475.00;5093080;28;8841;-61
2022/10/14 10:26:25;;;;;;;;;0.00;0.00;;;;;18.05;70.95;99477.56;5094166;28;8857;-62
2022/10/14 10:28:56;;;;;;;;;0.00;0.00;;;;;17.96;71.50;99474.13;5094306;28;8968;-62
2022/10/14 10:31:24;;;;;;;;;0.00;0.00;;;;;17.95;71.77;99488.63;5094568;28;8910;-60
2022/10/14 10:33:54;;;;;;;;;0.00;0.00;;;;;17.94;71.96;99484.25;5094589;28;8942;-62
2022/10/14 10:36:22;;;;;;;;;0.00;0.00;;;;;17.97;71.86;99475.78;5094031;28;8923;-62
2022/10/14 10:38:49;;;;;;;;;0.00;0.00;;;;;18.05;71.50;99464.94;5093987;28;8858;-63
2022/10/14 10:41:17;;;;;;;;;0.00;0.00;;;;;18.07;71.62;99465.59;5093929;28;8837;-60
2022/10/14 10:43:48;;;;;;;;;0.00;0.00;;;;;18.05;71.19;99473.03;5093566;28;8838;-60
2022/10/14 10:46:16;;;;;;;;;1.00;0.00;;;;;17.95;71.65;99467.06;5093246;28;8838;-60
2022/10/14 10:48:44;;;;;;;;;0.00;0.00;;;;;17.86;71.49;99465.44;5092748;28;9557;-60
2022/10/14 10:51:13;;;;;;;;;0.00;0.00;;;;;17.79;72.10;99461.78;5093084;28;8837;-62
2022/10/14 10:53:41;;;;;;;;;0.00;0.00;;;;;17.76;71.95;99451.38;5093592;28;8825;-61
2022/10/14 10:56:09;;;;;;;;;0.00;0.00;;;;;17.76;71.72;99462.13;5093571;28;9010;-60
2022/10/14 10:58:37;;;;;;;;;0.00;0.00;;;;;17.74;72.21;99455.25;5093482;28;8972;-60
2022/10/14 11:01:06;;;;;;;;;0.00;0.00;;;;;17.69;72.04;99444.19;5093434;28;8821;-60
2022/10/14 11:03:34;;;;;;;;;0.00;0.00;;;;;17.68;72.49;99446.03;5092956;28;8837;-60
2022/10/14 11:06:02;;;;;;;;;0.00;0.00;;;;;17.70;72.19;99443.16;5092331;28;8849;-60
2022/10/14 11:14:01;;;;;;;;;0.00;0.00;;;;;17.49;72.93;99441.13;5092571;28;8876;-59
2022/10/14 11:16:29;;;;;;;;;0.60;0.40;;;;;17.45;73.06;99431.72;5092461;28;8846;-59
2022/10/14 11:18:59;;;;;;;;;1.40;1.00;;;;;17.43;72.92;99433.75;5090670;28;8822;-60
2022/10/14 11:21:27;;;;;;;;;3.00;2.20;;;;;17.44;72.38;99424.66;5091444;28;8844;-60
2022/10/14 11:23:58;;;;;;;;;1.00;1.00;;;;;17.43;72.44;99411.38;5091528;28;9030;-59
2022/10/14 11:26:26;;;;;;;;;2.60;1.40;;;;;17.43;72.69;99425.69;5093054;28;8834;-61
2022/10/14 11:28:54;;;;;;;;;3.40;3.20;;;;;17.41;72.63;99419.66;5092770;28;8842;-61
2022/10/14 11:31:26;;;;;;;;;4.80;3.00;;;;;17.42;72.58;99415.94;5095155;28;8838;-60
2022/10/14 11:33:54;;;;;;;;;3.00;3.00;;;;;17.47;72.25;99401.94;5097379;28;8861;-61
2022/10/14 11:36:22;;;;;;;;;3.00;3.00;;;;;17.55;72.29;99402.69;5097397;28;8969;-60
2022/10/14 11:38:50;;;;;;;;;2.60;2.60;;;;;17.64;72.42;99412.41;5096896;28;8876;-61
2022/10/14 11:41:19;;;;;;;;;3.80;3.80;;;;;17.73;72.34;99405.94;5097182;28;8837;-59
2022/10/14 11:43:47;;;;;;;;;6.80;5.20;;;;;17.92;71.54;99394.66;5097636;28;8941;-59
2022/10/14 11:46:15;;;;;;;;;4.00;4.00;;;;;18.14;71.09;99396.47;5097889;28;8980;-60
2022/10/14 11:48:43;;;;;;;;;5.60;4.80;;;;;18.32;70.59;99391.63;5098250;28;8817;-62